METAR Formatted Surface Weather Observation
Issued by NWS

Home | Current Version | Previous Version | Text Only | Print | Product List | Glossary On
Versions: 1 2 3 4 5 6 7 8 9 10 11 12 13 14
000
SAUS41 KLWX 211055
MTRNAK
METAR KNAK 211054Z AUTO 21006KT 10SM CLR 07/M01 A3013 RMK AO2 SLP205
T00721011



USA.gov is the U.S. government's official web portal to all federal, state and local government web resources and services.